createdAt,value
2019-02-22T00:00:49.945Z,114.80
2019-02-22T00:03:18.818Z,124.97
2019-02-22T00:05:48.055Z,132.27
2019-02-22T00:08:16.821Z,121.45
2019-02-22T00:10:45.605Z,132.00
2019-02-22T00:13:14.371Z,142.95
2019-02-22T00:15:43.153Z,126.90
2019-02-22T00:18:12.020Z,135.25
2019-02-22T00:20:41.349Z,137.90
2019-02-22T00:23:10.243Z,135.50
2019-02-22T00:25:39.059Z,148.55
2019-02-22T00:28:07.898Z,147.72
2019-02-22T00:30:36.710Z,122.07
2019-02-22T00:33:05.506Z,154.87
2019-02-22T00:35:34.266Z,124.30
2019-02-22T00:38:03.126Z,142.90
2019-02-22T00:40:31.914Z,117.70
2019-02-22T00:43:00.683Z,160.10
2019-02-22T00:45:29.474Z,126.05
2019-02-22T00:47:58.602Z,108.03
2019-02-22T00:50:27.369Z,137.20
2019-02-22T00:52:56.144Z,120.15
2019-02-22T00:55:24.890Z,121.85
2019-02-22T00:57:53.669Z,86.28
2019-02-22T01:00:22.461Z,112.60
2019-02-22T01:02:51.196Z,72.70
2019-02-22T01:05:19.997Z,106.40
2019-02-22T01:07:49.109Z,100.97
2019-02-22T01:10:17.973Z,70.87
2019-02-22T01:12:46.731Z,85.92
2019-02-22T01:15:15.551Z,93.62
2019-02-22T01:17:44.407Z,81.85
2019-02-22T01:20:13.237Z,85.45
2019-02-22T01:22:41.990Z,65.37
2019-02-22T01:25:10.747Z,82.05
2019-02-22T01:27:39.536Z,70.75
2019-02-22T01:30:08.946Z,63.80
2019-02-22T01:32:37.994Z,64.10
2019-02-22T01:35:06.918Z,66.77
2019-02-22T01:37:35.706Z,71.95
2019-02-22T01:40:05.076Z,71.55
2019-02-22T01:42:34.115Z,77.80
2019-02-22T01:45:02.858Z,73.17
2019-02-22T01:47:31.900Z,88.05
2019-02-22T01:50:00.668Z,66.20
2019-02-22T01:52:29.680Z,61.08
2019-02-22T01:54:58.524Z,66.20
2019-02-22T01:57:27.347Z,78.72
2019-02-22T01:59:56.131Z,66.40
2019-02-22T02:02:24.936Z,72.90
2019-02-22T02:04:53.853Z,70.15
2019-02-22T02:07:22.607Z,74.82
2019-02-22T02:09:51.366Z,70.90
2019-02-22T02:12:20.165Z,81.20
2019-02-22T02:14:48.923Z,57.78
2019-02-22T02:17:17.926Z,71.20
2019-02-22T02:19:46.824Z,71.22
2019-02-22T02:22:15.654Z,69.30
2019-02-22T02:24:44.430Z,56.08
2019-02-22T02:27:13.475Z,65.05
2019-02-22T02:29:42.748Z,50.05
2019-02-22T02:32:11.527Z,66.75
2019-02-22T02:34:40.543Z,65.20
2019-02-22T02:37:09.531Z,60.08
2019-02-22T02:39:38.496Z,60.28
2019-02-22T02:42:07.589Z,52.03
2019-02-22T02:44:36.372Z,66.95
2019-02-22T02:47:05.201Z,59.83
2019-02-22T02:49:34.186Z,52.38
2019-02-22T02:52:03.232Z,67.30
2019-02-22T02:54:31.981Z,70.72
2019-02-22T02:57:00.964Z,58.58
2019-02-22T02:59:29.732Z,78.97
2019-02-22T03:01:58.591Z,62.15
2019-02-22T03:04:27.400Z,66.80
2019-02-22T03:07:09.937Z,81.30
2019-02-22T03:09:38.839Z,66.55
2019-02-22T03:12:07.847Z,78.10
2019-02-22T03:14:36.672Z,50.17
2019-02-22T03:17:05.431Z,68.67
2019-02-22T03:19:34.657Z,69.80
2019-02-22T03:22:03.515Z,75.95
2019-02-22T03:24:32.296Z,80.83
2019-02-22T03:27:01.066Z,95.57
2019-02-22T03:29:29.885Z,101.38
2019-02-22T03:31:58.749Z,78.40
2019-02-22T03:34:27.588Z,80.85
2019-02-22T03:36:56.646Z,81.47
2019-02-22T03:39:25.473Z,65.32
2019-02-22T03:41:54.261Z,53.80
2019-02-22T03:44:23.606Z,54.03
2019-02-22T03:46:52.351Z,57.88
2019-02-22T03:49:21.103Z,43.48
2019-02-22T03:51:49.945Z,40.38
2019-02-22T03:54:18.868Z,27.82
2019-02-22T03:56:47.639Z,33.02
2019-02-22T03:59:16.473Z,27.55
2019-02-22T04:01:45.256Z,26.93
2019-02-22T04:04:14.087Z,28.55
2019-02-22T04:06:43.104Z,29.85
2019-02-22T04:09:11.886Z,27.87
2019-02-22T04:11:45.722Z,29.30
2019-02-22T04:14:11.495Z,31.70
2019-02-22T04:16:40.480Z,24.77
2019-02-22T04:19:09.238Z,21.55
2019-02-22T04:21:38.032Z,23.98
2019-02-22T04:24:06.846Z,25.90
2019-02-22T04:26:35.712Z,22.02
2019-02-22T04:29:04.822Z,25.45
2019-02-22T04:31:33.928Z,20.23
2019-02-22T04:34:02.678Z,26.20
2019-02-22T04:36:31.943Z,19.85
2019-02-22T04:39:01.444Z,29.35
2019-02-22T04:41:30.230Z,23.65
2019-02-22T04:43:59.029Z,22.40
2019-02-22T04:46:28.112Z,20.57
2019-02-22T04:48:56.912Z,21.90
2019-02-22T04:51:26.007Z,22.87
2019-02-22T04:53:55.009Z,19.32
2019-02-22T04:56:23.786Z,18.87
2019-02-22T04:58:53.020Z,19.70
2019-02-22T05:01:22.049Z,18.82
2019-02-22T05:03:50.897Z,25.32
2019-02-22T05:06:19.817Z,21.85
2019-02-22T05:08:48.916Z,29.40
2019-02-22T05:11:17.919Z,20.35
2019-02-22T05:13:46.720Z,21.68
2019-02-22T05:16:15.515Z,24.95
2019-02-22T05:18:44.262Z,21.05
2019-02-22T05:21:13.043Z,17.60
2019-02-22T05:23:42.163Z,21.15
2019-02-22T05:26:10.935Z,26.48
2019-02-22T05:28:39.787Z,20.35
2019-02-22T05:31:08.612Z,22.30
2019-02-22T05:33:37.920Z,19.05
2019-02-22T05:36:06.688Z,24.18
2019-02-22T05:38:35.619Z,13.15
2019-02-22T05:41:04.545Z,18.75
2019-02-22T05:43:33.399Z,21.52
2019-02-22T05:46:02.142Z,19.17
2019-02-22T05:48:30.882Z,16.30
2019-02-22T05:50:59.899Z,18.25
2019-02-22T05:53:28.986Z,13.22
2019-02-22T05:55:57.758Z,14.70
2019-02-22T05:58:29.121Z,22.35
2019-02-22T06:00:58.453Z,19.00
2019-02-22T06:03:27.549Z,18.45
2019-02-22T06:05:56.495Z,14.58
2019-02-22T06:08:25.444Z,14.95
2019-02-22T06:10:54.203Z,13.25
2019-02-22T06:13:23.044Z,15.30
2019-02-22T06:15:51.838Z,17.52
2019-02-22T06:18:23.039Z,14.90
2019-02-22T06:20:51.193Z,15.95
2019-02-22T06:23:23.833Z,14.23
2019-02-22T06:25:52.911Z,15.25
2019-02-22T06:28:21.909Z,15.50
2019-02-22T06:30:50.696Z,18.10
2019-02-22T06:33:19.459Z,14.65
2019-02-22T06:35:48.255Z,14.98
2019-02-22T06:38:17.040Z,14.75
2019-02-22T06:40:47.964Z,13.60
2019-02-22T06:43:16.325Z,12.30
2019-02-22T06:45:45.263Z,12.33
2019-02-22T06:48:14.368Z,13.00
2019-02-22T06:50:43.118Z,12.37
2019-02-22T06:53:11.890Z,12.60
2019-02-22T06:55:40.679Z,13.10
2019-02-22T06:58:11.825Z,11.63
2019-02-22T07:00:40.462Z,13.30
2019-02-22T07:03:09.214Z,11.30
2019-02-22T07:05:38.092Z,11.70
2019-02-22T07:08:07.438Z,12.15
2019-02-22T07:11:00.905Z,13.08
2019-02-22T07:13:30.210Z,14.58
2019-02-22T07:15:58.962Z,13.93
2019-02-22T07:18:27.717Z,14.68
2019-02-22T07:20:56.521Z,14.23
2019-02-22T07:23:25.681Z,16.12
2019-02-22T07:25:54.707Z,15.70
2019-02-22T07:28:23.487Z,15.00
2019-02-22T07:30:52.555Z,17.35
2019-02-22T07:33:21.323Z,17.25
2019-02-22T07:35:50.427Z,15.83
2019-02-22T07:38:19.536Z,16.70
2019-02-22T07:40:48.425Z,16.82
2019-02-22T07:43:17.195Z,15.40
2019-02-22T07:45:45.980Z,16.62
2019-02-22T07:48:14.764Z,15.78
2019-02-22T07:50:43.783Z,14.28
2019-02-22T07:53:13.317Z,15.43
2019-02-22T07:55:42.271Z,15.72
2019-02-22T07:58:11.087Z,13.80
2019-02-22T08:00:39.840Z,14.43
2019-02-22T08:03:08.599Z,16.25
2019-02-22T08:05:37.843Z,10.82
2019-02-22T08:08:07.050Z,8.73
2019-02-22T08:10:35.805Z,6.67
2019-02-22T08:13:04.651Z,4.78
2019-02-22T08:15:35.359Z,4.50
2019-02-22T08:18:03.923Z,3.17
2019-02-22T08:20:32.789Z,2.85
2019-02-22T08:23:01.793Z,4.20
2019-02-22T08:25:30.804Z,3.90
2019-02-22T08:27:59.556Z,3.98
2019-02-22T08:30:28.643Z,3.22
2019-02-22T08:32:57.677Z,4.33
2019-02-22T08:35:26.454Z,3.87
2019-02-22T08:37:55.487Z,3.83
2019-02-22T08:40:24.280Z,5.20
2019-02-22T08:42:53.026Z,4.97
2019-02-22T08:45:21.949Z,6.67
2019-02-22T08:47:50.739Z,7.20
2019-02-22T08:50:19.484Z,7.70
2019-02-22T08:52:48.260Z,6.87
2019-02-22T08:55:16.992Z,8.50
2019-02-22T08:57:45.832Z,8.13
2019-02-22T09:00:15.205Z,9.20
2019-02-22T09:02:43.985Z,10.50
2019-02-22T09:05:12.799Z,8.63
2019-02-22T09:07:41.599Z,8.90
2019-02-22T09:10:10.611Z,8.73
2019-02-22T09:12:39.371Z,11.05
2019-02-22T09:15:10.599Z,9.20
2019-02-22T09:17:39.582Z,10.08
2019-02-22T09:20:09.285Z,11.15
2019-02-22T09:22:38.210Z,11.05
2019-02-22T09:25:08.717Z,10.88
2019-02-22T09:27:37.518Z,12.13
2019-02-22T09:30:07.411Z,12.23
2019-02-22T09:32:36.200Z,12.85
2019-02-22T09:35:05.907Z,14.30
2019-02-22T09:37:34.696Z,13.55
2019-02-22T09:40:03.547Z,15.00
2019-02-22T09:42:32.392Z,13.30
2019-02-22T09:45:01.261Z,14.47
2019-02-22T09:47:30.022Z,14.93
2019-02-22T09:49:58.773Z,16.07
2019-02-22T09:52:27.837Z,13.18
2019-02-22T09:54:56.676Z,14.68
2019-02-22T09:57:25.467Z,15.48
2019-02-22T09:59:54.263Z,13.60
2019-02-22T10:02:23.275Z,14.45
2019-02-22T10:04:55.553Z,14.87
2019-02-22T10:07:22.899Z,17.40
2019-02-22T10:09:51.704Z,18.60
2019-02-22T10:12:20.715Z,18.17
2019-02-22T10:14:49.820Z,19.80
2019-02-22T10:17:18.640Z,20.80
2019-02-22T10:19:47.765Z,18.40
2019-02-22T10:22:16.893Z,18.80
2019-02-22T10:24:45.855Z,19.73
2019-02-22T10:27:15.193Z,19.20
2019-02-22T10:29:44.089Z,20.82
2019-02-22T10:32:12.951Z,20.82
2019-02-22T10:34:41.847Z,17.32
2019-02-22T10:37:10.651Z,16.97
2019-02-22T10:39:39.596Z,16.67
2019-02-22T10:42:08.591Z,18.42
2019-02-22T10:44:37.607Z,17.87
2019-02-22T10:47:06.411Z,17.52
2019-02-22T10:49:35.516Z,20.25
2019-02-22T10:52:04.351Z,19.42
2019-02-22T10:54:33.171Z,16.57
2019-02-22T10:57:02.438Z,17.92
2019-02-22T10:59:31.486Z,21.87
2019-02-22T11:02:00.343Z,24.12
2019-02-22T11:04:29.225Z,21.80
2019-02-22T11:06:58.338Z,22.58
2019-02-22T11:09:27.168Z,22.80
2019-02-22T11:11:55.992Z,25.62
2019-02-22T11:14:47.599Z,24.92
2019-02-22T11:17:16.440Z,26.77
2019-02-22T11:19:45.264Z,30.57
2019-02-22T11:22:14.359Z,29.10
2019-02-22T11:24:43.175Z,26.73
2019-02-22T11:27:12.008Z,34.05
2019-02-22T11:29:40.897Z,29.42
2019-02-22T11:32:09.698Z,32.17
2019-02-22T11:34:38.494Z,32.23
2019-02-22T11:37:07.346Z,31.50
2019-02-22T11:39:36.248Z,30.37
2019-02-22T11:42:05.637Z,34.73
2019-02-22T11:44:40.264Z,33.38
2019-02-22T11:47:05.072Z,33.40
2019-02-22T11:49:33.894Z,33.08
2019-02-22T11:52:02.685Z,30.97
2019-02-22T11:54:31.525Z,33.38
2019-02-22T11:57:00.468Z,33.28
2019-02-22T11:59:29.641Z,30.15
2019-02-22T12:01:58.534Z,26.45
2019-02-22T12:04:27.619Z,31.48
2019-02-22T12:06:56.453Z,29.98
2019-02-22T12:09:25.706Z,26.55
2019-02-22T12:11:54.718Z,29.80
2019-02-22T12:14:23.499Z,29.40
2019-02-22T12:16:52.352Z,29.85
2019-02-22T12:19:21.115Z,32.38
2019-02-22T12:21:49.958Z,29.65
2019-02-22T12:24:18.834Z,26.52
2019-02-22T12:26:47.642Z,29.12
2019-02-22T12:29:16.698Z,29.65
2019-02-22T12:31:45.611Z,31.70
2019-02-22T12:34:14.428Z,24.00
2019-02-22T12:36:43.291Z,28.10
2019-02-22T12:39:12.231Z,25.30
2019-02-22T12:41:41.126Z,27.15
2019-02-22T12:44:09.911Z,25.50
2019-02-22T12:46:38.739Z,21.90
2019-02-22T12:49:07.592Z,22.85
2019-02-22T12:51:36.406Z,25.57
2019-02-22T12:54:05.221Z,22.87
2019-02-22T12:59:04.848Z,16.05
2019-02-22T13:01:33.942Z,16.82
2019-02-22T13:04:02.795Z,15.60
2019-02-22T13:06:31.673Z,16.50
2019-02-22T13:09:00.975Z,16.40
2019-02-22T13:11:32.859Z,14.78
2019-02-22T13:14:01.742Z,15.63
2019-02-22T13:16:30.565Z,13.32
2019-02-22T13:19:02.418Z,11.97
2019-02-22T13:21:32.151Z,12.40
2019-02-22T13:24:01.143Z,12.35
2019-02-22T13:26:33.578Z,11.00
2019-02-22T13:29:04.862Z,12.13
2019-02-22T13:31:33.044Z,12.55
2019-02-22T13:34:01.894Z,9.83
2019-02-22T13:36:30.795Z,10.00
2019-02-22T13:38:59.645Z,8.50
2019-02-22T13:41:29.002Z,10.03
2019-02-22T13:43:57.900Z,12.30
2019-02-22T13:46:26.809Z,9.15
2019-02-22T13:48:55.896Z,10.68
2019-02-22T13:51:24.756Z,11.08
2019-02-22T13:53:53.608Z,9.70
2019-02-22T13:56:29.736Z,9.73
2019-02-22T13:58:53.071Z,9.58
2019-02-22T14:01:21.965Z,11.00
2019-02-22T14:03:50.816Z,10.20
2019-02-22T14:06:21.036Z,7.85
2019-02-22T14:08:49.909Z,7.65
2019-02-22T14:11:18.716Z,7.28
2019-02-22T14:13:47.466Z,8.70
2019-02-22T14:16:16.467Z,8.15
2019-02-22T14:18:45.246Z,8.40
2019-02-22T14:21:14.793Z,9.20
2019-02-22T14:23:43.909Z,9.95
2019-02-22T14:26:12.912Z,10.28
2019-02-22T14:28:41.696Z,10.80
2019-02-22T14:31:10.543Z,10.80
2019-02-22T14:33:39.329Z,12.55
2019-02-22T14:36:08.253Z,13.28
2019-02-22T14:38:37.131Z,12.23
2019-02-22T14:41:05.941Z,15.32
2019-02-22T14:43:34.811Z,13.60
2019-02-22T14:46:03.632Z,12.70
2019-02-22T14:48:32.652Z,14.25
2019-02-22T14:51:02.056Z,14.00
2019-02-22T14:53:30.832Z,14.05
2019-02-22T14:56:00.231Z,12.55
2019-02-22T14:58:29.303Z,14.23
2019-02-22T15:00:58.157Z,11.53
2019-02-22T15:03:27.022Z,13.45
2019-02-22T15:05:55.828Z,12.82
2019-02-22T15:08:24.924Z,11.18
2019-02-22T15:10:53.717Z,12.68
2019-02-22T15:13:22.546Z,13.53
2019-02-22T15:16:14.024Z,12.70
2019-02-22T15:19:02.161Z,12.47
2019-02-22T15:21:31.231Z,12.70
2019-02-22T15:23:59.987Z,11.25
2019-02-22T15:26:29.279Z,13.38
2019-02-22T15:28:58.033Z,10.85
2019-02-22T15:31:35.864Z,13.00
2019-02-22T15:33:57.607Z,11.65
2019-02-22T15:36:26.367Z,12.05
2019-02-22T15:38:55.196Z,11.48
2019-02-22T15:41:24.178Z,10.90
2019-02-22T15:43:52.956Z,12.00
2019-02-22T15:46:21.804Z,12.45
2019-02-22T15:48:50.587Z,14.55
2019-02-22T15:51:19.829Z,12.70
2019-02-22T15:53:48.710Z,11.90
2019-02-22T15:56:18.448Z,11.85
2019-02-22T15:58:47.466Z,11.70
2019-02-22T16:01:16.227Z,13.60
2019-02-22T16:04:02.439Z,13.55
2019-02-22T16:06:32.424Z,15.28
2019-02-22T16:09:01.338Z,11.95
2019-02-22T16:11:30.161Z,10.45
2019-02-22T16:13:59.019Z,12.53
2019-02-22T16:16:28.025Z,12.00
2019-02-22T16:18:57.062Z,12.35
2019-02-22T16:21:25.899Z,11.22
2019-02-22T16:23:54.925Z,11.15
2019-02-22T16:26:27.878Z,10.68
2019-02-22T16:28:56.642Z,12.88
2019-02-22T16:31:25.557Z,13.18
2019-02-22T16:33:54.670Z,11.10
2019-02-22T16:36:23.639Z,11.88
2019-02-22T16:38:52.433Z,11.30
2019-02-22T16:41:21.283Z,13.30
2019-02-22T16:43:50.076Z,12.05
2019-02-22T16:46:18.866Z,11.48
2019-02-22T16:48:47.626Z,11.93
2019-02-22T16:51:16.452Z,14.83
2019-02-22T16:53:45.326Z,12.85
2019-02-22T16:56:14.216Z,13.85
2019-02-22T16:58:43.066Z,14.00
2019-02-22T17:01:11.860Z,14.18
2019-02-22T17:03:40.880Z,15.63
2019-02-22T17:06:09.657Z,14.43
2019-02-22T17:08:38.582Z,16.62
2019-02-22T17:11:07.751Z,18.15
2019-02-22T17:13:36.952Z,15.13
2019-02-22T17:16:05.795Z,13.58
2019-02-22T17:18:34.546Z,14.90
2019-02-22T17:21:03.370Z,20.43
2019-02-22T17:23:32.419Z,14.73
2019-02-22T17:26:01.734Z,13.75
2019-02-22T17:28:30.755Z,12.85
2019-02-22T17:30:59.520Z,11.05
2019-02-22T17:33:28.299Z,13.18
2019-02-22T17:35:57.101Z,18.42
2019-02-22T17:38:26.036Z,16.75
2019-02-22T17:40:55.027Z,17.37
2019-02-22T17:43:23.768Z,16.07
2019-02-22T17:45:52.533Z,16.55
2019-02-22T17:48:21.327Z,16.12
2019-02-22T17:50:50.335Z,15.23
2019-02-22T17:53:19.175Z,17.52
2019-02-22T17:55:48.153Z,17.32
2019-02-22T17:58:24.520Z,19.42
2019-02-22T18:00:47.611Z,15.20
2019-02-22T18:03:17.487Z,18.73
2019-02-22T18:05:46.353Z,19.50
2019-02-22T18:08:15.476Z,20.55
2019-02-22T18:10:44.675Z,19.37
2019-02-22T18:13:15.805Z,19.57
2019-02-22T18:15:44.422Z,23.05
2019-02-22T18:18:13.241Z,31.40
2019-02-22T18:20:42.283Z,20.82
2019-02-22T18:23:11.356Z,24.70
2019-02-22T18:25:40.144Z,20.30
2019-02-22T18:28:09.322Z,33.83
2019-02-22T18:30:38.436Z,33.30
2019-02-22T18:33:07.966Z,31.12
2019-02-22T18:35:37.047Z,25.37
2019-02-22T18:38:06.188Z,24.63
2019-02-22T18:40:35.056Z,84.47
2019-02-22T18:43:03.812Z,194.75
2019-02-22T18:45:32.587Z,44.15
2019-02-22T18:48:03.463Z,33.98
2019-02-22T18:50:32.251Z,22.25
2019-02-22T18:53:01.130Z,18.55
2019-02-22T18:55:29.899Z,20.97
2019-02-22T18:57:58.692Z,19.02
2019-02-22T19:00:27.509Z,21.55
2019-02-22T19:02:56.307Z,23.65
2019-02-22T19:05:25.078Z,18.82
2019-02-22T19:07:53.879Z,23.40
2019-02-22T19:10:22.940Z,20.57
2019-02-22T19:12:51.834Z,22.48
2019-02-22T19:15:20.961Z,20.23
2019-02-22T19:17:49.782Z,23.50
2019-02-22T19:20:18.591Z,27.85
2019-02-22T19:22:47.709Z,27.17
2019-02-22T19:25:16.553Z,24.60
2019-02-22T19:27:46.543Z,24.07
2019-02-22T19:30:16.535Z,29.87
2019-02-22T19:32:45.604Z,28.75
2019-02-22T19:35:14.394Z,59.65
2019-02-22T19:37:43.389Z,167.93
2019-02-22T19:40:14.173Z,73.33
2019-02-22T19:42:43.039Z,67.10
2019-02-22T19:45:11.936Z,42.45
2019-02-22T19:47:42.241Z,27.40
2019-02-22T19:50:12.063Z,30.25
2019-02-22T19:52:40.999Z,26.23
2019-02-22T19:55:11.498Z,29.07
2019-02-22T19:57:40.534Z,25.95
2019-02-22T20:00:11.785Z,27.07
2019-02-22T20:02:40.550Z,24.55
2019-02-22T20:05:09.864Z,21.90
2019-02-22T20:07:38.649Z,27.90
2019-02-22T20:10:17.377Z,30.80
2019-02-22T20:12:39.732Z,35.35
2019-02-22T20:15:10.215Z,35.15
2019-02-22T20:17:40.351Z,31.55
2019-02-22T20:20:11.915Z,29.65
2019-02-22T20:22:40.744Z,30.92
2019-02-22T20:25:09.729Z,29.63
2019-02-22T20:27:38.700Z,55.48
2019-02-22T20:30:09.637Z,54.33
2019-02-22T20:32:38.503Z,56.42
2019-02-22T20:35:09.661Z,41.65
2019-02-22T20:37:38.995Z,43.10
2019-02-22T20:40:08.299Z,41.20
2019-02-22T20:42:37.192Z,27.50
2019-02-22T20:45:08.137Z,177.78
2019-02-22T20:47:38.063Z,112.52
2019-02-22T20:50:13.651Z,55.95
2019-02-22T20:52:42.667Z,50.00
2019-02-22T20:55:11.827Z,35.00
2019-02-22T20:57:40.723Z,26.70
2019-02-22T21:00:11.787Z,22.13
2019-02-22T21:02:40.561Z,26.35
2019-02-22T21:05:09.815Z,21.62
2019-02-22T21:07:38.827Z,18.20
2019-02-22T21:10:09.885Z,15.00
2019-02-22T21:12:38.675Z,15.78
2019-02-22T21:15:08.930Z,15.85
2019-02-22T21:17:37.684Z,14.18
2019-02-22T21:20:07.572Z,14.70
2019-02-22T21:22:36.930Z,13.50
2019-02-22T21:25:06.469Z,13.90
2019-02-22T21:27:35.586Z,12.80
2019-02-22T21:30:04.732Z,12.85
2019-02-22T21:32:33.863Z,14.18
2019-02-22T21:35:02.807Z,14.43
2019-02-22T21:37:31.697Z,14.35
2019-02-22T21:40:00.515Z,17.52
2019-02-22T21:42:29.342Z,16.55
2019-02-22T21:44:58.123Z,14.25
2019-02-22T21:47:26.946Z,15.72
2019-02-22T21:49:55.744Z,15.18
2019-02-22T21:52:24.728Z,18.07
2019-02-22T21:54:53.787Z,18.42
2019-02-22T21:57:22.777Z,13.55
2019-02-22T21:59:51.775Z,15.05
2019-02-22T22:02:20.811Z,16.07
2019-02-22T22:04:49.603Z,12.82
2019-02-22T22:07:18.620Z,12.93
2019-02-22T22:09:47.367Z,13.50
2019-02-22T22:12:16.227Z,13.72
2019-02-22T22:14:45.045Z,9.95
2019-02-22T22:17:13.938Z,15.05
2019-02-22T22:19:42.776Z,12.10
2019-02-22T22:22:12.057Z,10.90
2019-02-22T22:24:42.374Z,12.80
2019-02-22T22:27:11.129Z,10.18
2019-02-22T22:29:40.139Z,12.75
2019-02-22T22:32:08.928Z,10.45
2019-02-22T22:34:37.774Z,12.88
2019-02-22T22:37:06.586Z,10.85
2019-02-22T22:39:35.455Z,9.90
2019-02-22T22:42:04.190Z,10.25
2019-02-22T22:44:33.195Z,10.90
2019-02-22T22:47:01.940Z,10.75
2019-02-22T22:49:30.720Z,10.95
2019-02-22T22:51:59.500Z,9.05
2019-02-22T22:54:28.271Z,9.80
2019-02-22T22:56:57.063Z,11.90
2019-02-22T22:59:25.867Z,12.58
2019-02-22T23:01:56.275Z,12.03
2019-02-22T23:04:25.105Z,10.53
2019-02-22T23:06:53.857Z,11.83
2019-02-22T23:09:22.990Z,11.03
2019-02-22T23:11:51.867Z,10.00
2019-02-22T23:14:20.655Z,11.83
2019-02-22T23:16:49.883Z,10.90
2019-02-22T23:19:18.676Z,10.85
2019-02-22T23:21:47.468Z,14.43
2019-02-22T23:24:16.581Z,10.10
2019-02-22T23:26:45.411Z,11.25
2019-02-22T23:29:14.150Z,9.68
2019-02-22T23:31:42.943Z,10.98
2019-02-22T23:34:11.712Z,10.53
2019-02-22T23:36:40.485Z,10.50
2019-02-22T23:39:09.411Z,12.78
2019-02-22T23:41:38.231Z,15.40
2019-02-22T23:44:07.049Z,17.10
2019-02-22T23:46:35.904Z,13.72
2019-02-22T23:49:12.852Z,14.45
2019-02-22T23:51:35.382Z,11.25
2019-02-22T23:54:04.625Z,18.77
2019-02-22T23:56:33.623Z,14.55
2019-02-22T23:59:02.659Z,14.35
